createdAt,value
2023-01-20T00:00:46.311Z,1.90
2023-01-20T00:01:46.966Z,1.87
2023-01-20T00:02:47.992Z,1.88
2023-01-20T00:03:48.667Z,1.90
2023-01-20T00:04:49.379Z,1.90
2023-01-20T00:05:50.058Z,1.87
2023-01-20T00:06:50.763Z,1.87
2023-01-20T00:07:51.474Z,1.88
2023-01-20T00:08:52.181Z,1.90
2023-01-20T00:09:52.910Z,1.91
2023-01-20T00:10:53.608Z,1.90
2023-01-20T00:11:54.311Z,1.90
2023-01-20T00:12:55.003Z,1.88
2023-01-20T00:13:55.714Z,1.90
2023-01-20T00:14:56.473Z,1.90
2023-01-20T00:15:57.172Z,1.91
2023-01-20T00:16:57.885Z,1.91
2023-01-20T00:17:58.587Z,1.90
2023-01-20T00:18:59.297Z,1.91
2023-01-20T00:19:59.992Z,1.90
2023-01-20T00:21:00.703Z,1.91
2023-01-20T00:22:01.401Z,1.91
2023-01-20T00:23:02.438Z,1.88
2023-01-20T00:24:02.639Z,1.90
2023-01-20T00:25:03.369Z,1.88
2023-01-20T00:26:04.069Z,1.90
2023-01-20T00:27:04.737Z,1.88
2023-01-20T00:28:05.444Z,1.88
2023-01-20T00:29:06.157Z,1.88
2023-01-20T00:30:06.853Z,1.86
2023-01-20T00:31:07.601Z,1.88
2023-01-20T00:32:08.263Z,1.87
2023-01-20T00:33:08.984Z,1.87
2023-01-20T00:34:09.676Z,1.88
2023-01-20T00:35:10.487Z,1.87
2023-01-20T00:36:11.155Z,1.87
2023-01-20T00:37:11.857Z,1.86
2023-01-20T00:38:12.569Z,1.86
2023-01-20T00:39:13.277Z,1.86
2023-01-20T00:40:13.997Z,1.86
2023-01-20T00:41:14.709Z,1.84
2023-01-20T00:42:15.385Z,1.83
2023-01-20T00:43:16.427Z,1.83
2023-01-20T00:44:16.639Z,1.84
2023-01-20T00:45:17.342Z,1.84
2023-01-20T00:46:18.094Z,1.83
2023-01-20T00:47:18.777Z,1.84
2023-01-20T00:48:19.924Z,1.84
2023-01-20T00:49:20.129Z,1.83
2023-01-20T00:50:20.843Z,1.81
2023-01-20T00:51:21.576Z,1.80
2023-01-20T00:52:22.255Z,1.81
2023-01-20T00:53:23.435Z,1.81
2023-01-20T00:54:23.635Z,1.81
2023-01-20T00:55:24.354Z,1.81
2023-01-20T00:56:25.132Z,1.79
2023-01-20T00:57:25.765Z,1.77
2023-01-20T00:58:26.481Z,1.77
2023-01-20T00:59:27.175Z,1.73
2023-01-20T01:00:27.904Z,1.72
2023-01-20T01:01:28.711Z,1.72
2023-01-20T01:02:29.425Z,1.72
2023-01-20T01:03:30.427Z,1.70
2023-01-20T01:04:30.641Z,1.69
2023-01-20T01:05:31.341Z,1.72
2023-01-20T01:06:32.046Z,1.69
2023-01-20T01:07:32.751Z,1.69
2023-01-20T01:08:33.927Z,1.69
2023-01-20T01:09:34.160Z,1.69
2023-01-20T01:10:34.871Z,1.68
2023-01-20T01:11:35.568Z,1.66
2023-01-20T01:12:36.257Z,1.66
2023-01-20T01:13:36.978Z,1.63
2023-01-20T01:14:37.681Z,1.65
2023-01-20T01:15:38.387Z,1.63
2023-01-20T01:16:39.096Z,1.63
2023-01-20T01:17:39.802Z,1.63
2023-01-20T01:18:40.952Z,1.65
2023-01-20T01:19:41.169Z,1.62
2023-01-20T01:20:41.875Z,1.63
2023-01-20T01:21:42.588Z,1.63
2023-01-20T01:22:43.290Z,1.62
2023-01-20T01:23:44.053Z,1.63
2023-01-20T01:24:44.727Z,1.63
2023-01-20T01:25:45.459Z,1.63
2023-01-20T01:26:46.204Z,1.62
2023-01-20T01:27:46.883Z,1.63
2023-01-20T01:28:47.596Z,1.60
2023-01-20T01:29:48.306Z,1.60
2023-01-20T01:30:49.042Z,1.63
2023-01-20T01:31:49.723Z,1.62
2023-01-20T01:32:50.466Z,1.62
2023-01-20T01:33:51.432Z,1.62
2023-01-20T01:34:51.638Z,1.62
2023-01-20T01:35:52.341Z,1.63
2023-01-20T01:36:53.048Z,1.63
2023-01-20T01:37:53.774Z,1.62
2023-01-20T01:38:57.262Z,1.63
2023-01-20T01:39:55.243Z,1.63
2023-01-20T01:40:55.963Z,1.60
2023-01-20T01:41:56.693Z,1.60
2023-01-20T01:42:57.362Z,1.60
2023-01-20T01:43:58.425Z,1.59
2023-01-20T01:44:58.633Z,1.60
2023-01-20T01:45:59.349Z,1.59
2023-01-20T01:47:00.130Z,1.59
2023-01-20T01:48:00.833Z,1.59
2023-01-20T01:49:01.926Z,1.59
2023-01-20T01:50:02.144Z,1.60
2023-01-20T01:51:02.858Z,1.59
2023-01-20T01:52:03.547Z,1.59
2023-01-20T01:53:04.249Z,1.58
2023-01-20T01:54:04.960Z,1.55
2023-01-20T01:55:05.693Z,1.55
2023-01-20T01:56:06.419Z,1.55
2023-01-20T01:57:07.145Z,1.52
2023-01-20T01:58:07.800Z,1.52
2023-01-20T01:59:08.524Z,1.52
2023-01-20T02:00:09.235Z,1.51
2023-01-20T02:01:10.029Z,1.51
2023-01-20T02:02:10.736Z,1.51
2023-01-20T02:03:11.419Z,1.51
2023-01-20T02:04:12.134Z,1.51
2023-01-20T02:05:12.849Z,1.51
2023-01-20T02:06:13.543Z,1.52
2023-01-20T02:07:14.253Z,1.51
2023-01-20T02:08:14.954Z,1.52
2023-01-20T02:09:15.928Z,1.51
2023-01-20T02:10:16.643Z,1.51
2023-01-20T02:11:17.365Z,1.50
2023-01-20T02:12:18.073Z,1.48
2023-01-20T02:13:18.762Z,1.47
2023-01-20T02:14:19.928Z,1.45
2023-01-20T02:15:20.132Z,1.44
2023-01-20T02:16:20.885Z,1.44
2023-01-20T02:17:21.552Z,1.44
2023-01-20T02:18:22.253Z,1.42
2023-01-20T02:19:22.973Z,1.44
2023-01-20T02:20:23.674Z,1.44
2023-01-20T02:21:24.377Z,1.45
2023-01-20T02:22:25.085Z,1.45
2023-01-20T02:23:25.792Z,1.45
2023-01-20T02:24:27.404Z,1.45
2023-01-20T02:25:27.111Z,1.45
2023-01-20T02:26:27.840Z,1.47
2023-01-20T02:27:28.544Z,1.47
2023-01-20T02:28:29.233Z,1.47
2023-01-20T02:29:30.436Z,1.47
2023-01-20T02:30:30.657Z,1.50
2023-01-20T02:31:31.413Z,1.50
2023-01-20T02:32:32.073Z,1.48
2023-01-20T02:33:32.777Z,1.50
2023-01-20T02:34:33.925Z,1.48
2023-01-20T02:35:34.136Z,1.48
2023-01-20T02:36:34.842Z,1.47
2023-01-20T02:37:35.547Z,1.47
2023-01-20T02:38:36.253Z,1.45
2023-01-20T02:39:37.438Z,1.45
2023-01-20T02:40:37.647Z,1.44
2023-01-20T02:41:38.382Z,1.44
2023-01-20T02:42:39.084Z,1.44
2023-01-20T02:43:39.750Z,1.41
2023-01-20T02:44:40.475Z,1.41
2023-01-20T02:45:41.197Z,1.41
2023-01-20T02:46:41.880Z,1.41
2023-01-20T02:47:42.584Z,1.42
2023-01-20T02:48:44.275Z,1.40
2023-01-20T02:49:44.013Z,1.40
2023-01-20T02:50:44.724Z,1.37
2023-01-20T02:51:45.429Z,1.41
2023-01-20T02:52:46.223Z,1.40
2023-01-20T02:53:46.927Z,1.42
2023-01-20T02:54:47.655Z,1.42
2023-01-20T02:55:48.348Z,1.42
2023-01-20T02:56:49.071Z,1.42
2023-01-20T02:57:49.786Z,1.42
2023-01-20T02:58:50.449Z,1.42
2023-01-20T02:59:51.147Z,1.41
2023-01-20T03:00:51.917Z,1.44
2023-01-20T03:01:52.640Z,1.42
2023-01-20T03:02:53.330Z,1.41
2023-01-20T03:03:54.089Z,1.42
2023-01-20T03:04:54.954Z,1.42
2023-01-20T03:05:55.673Z,1.42
2023-01-20T03:06:56.349Z,1.44
2023-01-20T03:07:57.052Z,1.42
2023-01-20T03:08:57.756Z,1.41
2023-01-20T03:09:58.933Z,1.40
2023-01-20T03:10:59.145Z,1.42
2023-01-20T03:11:59.862Z,1.42
2023-01-20T03:13:00.583Z,1.41
2023-01-20T03:14:01.272Z,1.37
2023-01-20T03:15:01.979Z,1.41
2023-01-20T03:16:02.688Z,1.41
2023-01-20T03:17:03.388Z,1.40
2023-01-20T03:18:04.097Z,1.40
2023-01-20T03:19:04.801Z,1.37
2023-01-20T03:20:05.942Z,1.40
2023-01-20T03:21:06.140Z,1.40
2023-01-20T03:22:06.844Z,1.37
2023-01-20T03:23:07.552Z,1.40
2023-01-20T03:24:08.263Z,1.41
2023-01-20T03:25:09.447Z,1.42
2023-01-20T03:26:09.649Z,1.40
2023-01-20T03:27:10.376Z,1.41
2023-01-20T03:28:11.096Z,1.40
2023-01-20T03:29:11.768Z,1.41
2023-01-20T03:30:12.929Z,1.41
2023-01-20T03:31:13.285Z,1.40
2023-01-20T03:32:13.993Z,1.41
2023-01-20T03:33:14.699Z,1.40
2023-01-20T03:34:15.404Z,1.41
2023-01-20T03:35:16.667Z,1.41
2023-01-20T03:36:16.948Z,1.41
2023-01-20T03:37:17.661Z,1.41
2023-01-20T03:38:18.368Z,1.36
2023-01-20T03:39:19.070Z,1.36
2023-01-20T03:40:19.785Z,1.37
2023-01-20T03:41:20.493Z,1.37
2023-01-20T03:42:21.218Z,1.33
2023-01-20T03:43:21.964Z,1.34
2023-01-20T03:44:22.591Z,1.33
2023-01-20T03:45:23.306Z,1.32
2023-01-20T03:46:24.012Z,1.26
2023-01-20T03:47:24.717Z,1.29
2023-01-20T03:48:25.424Z,1.27
2023-01-20T03:49:26.134Z,1.26
2023-01-20T03:50:26.934Z,1.29
2023-01-20T03:51:27.710Z,1.34
2023-01-20T03:52:48.120Z,1.36
2023-01-20T03:53:30.044Z,1.40
2023-01-20T03:54:29.729Z,1.44
2023-01-20T03:55:30.442Z,1.47
2023-01-20T03:56:31.156Z,1.42
2023-01-20T03:57:31.895Z,1.44
2023-01-20T03:58:32.593Z,1.41
2023-01-20T03:59:33.268Z,1.42
2023-01-20T04:00:33.977Z,1.47
2023-01-20T04:01:34.759Z,1.47
2023-01-20T04:02:35.434Z,1.45
2023-01-20T04:03:36.169Z,1.47
2023-01-20T04:04:36.843Z,1.48
2023-01-20T04:05:37.562Z,1.50
2023-01-20T04:06:38.273Z,1.50
2023-01-20T04:07:38.973Z,1.50
2023-01-20T04:08:39.678Z,1.48
2023-01-20T04:09:40.385Z,1.47
2023-01-20T04:10:41.104Z,1.44
2023-01-20T04:11:41.806Z,1.42
2023-01-20T04:12:42.533Z,1.42
2023-01-20T04:13:43.234Z,1.42
2023-01-20T04:14:43.896Z,1.45
2023-01-20T04:15:44.716Z,1.45
2023-01-20T04:16:45.402Z,1.45
2023-01-20T04:17:46.134Z,1.44
2023-01-20T04:18:46.814Z,1.47
2023-01-20T04:19:47.524Z,1.47
2023-01-20T04:20:48.442Z,1.45
2023-01-20T04:21:49.135Z,1.48
2023-01-20T04:22:49.851Z,1.51
2023-01-20T04:23:50.559Z,1.47
2023-01-20T04:24:51.263Z,1.47
2023-01-20T04:25:52.448Z,1.47
2023-01-20T04:26:52.650Z,1.51
2023-01-20T04:27:53.403Z,1.51
2023-01-20T04:28:54.080Z,1.51
2023-01-20T04:29:54.748Z,1.50
2023-01-20T04:30:56.007Z,1.48
2023-01-20T04:31:56.193Z,1.51
2023-01-20T04:32:56.864Z,1.48
2023-01-20T04:33:57.583Z,1.47
2023-01-20T04:34:58.271Z,1.48
2023-01-20T04:35:59.004Z,1.48
2023-01-20T04:36:59.687Z,1.47
2023-01-20T04:38:00.400Z,1.50
2023-01-20T04:39:01.103Z,1.47
2023-01-20T04:40:01.811Z,1.47
2023-01-20T04:41:03.676Z,1.45
2023-01-20T04:42:03.354Z,1.45
2023-01-20T04:43:04.105Z,1.45
2023-01-20T04:44:04.803Z,1.45
2023-01-20T04:45:05.450Z,1.47
2023-01-20T04:46:06.447Z,1.47
2023-01-20T04:47:07.144Z,1.48
2023-01-20T04:48:07.860Z,1.48
2023-01-20T04:49:08.566Z,1.47
2023-01-20T04:50:09.273Z,1.47
2023-01-20T04:51:10.431Z,1.48
2023-01-20T04:52:10.641Z,1.47
2023-01-20T04:53:11.347Z,1.47
2023-01-20T04:54:12.068Z,1.45
2023-01-20T04:55:13.165Z,1.47
2023-01-20T04:56:13.548Z,1.50
2023-01-20T04:57:14.239Z,1.51
2023-01-20T04:58:14.967Z,1.51
2023-01-20T04:59:15.669Z,1.48
2023-01-20T05:00:16.405Z,1.48
2023-01-20T05:01:17.541Z,1.47
2023-01-20T05:02:17.850Z,1.48
2023-01-20T05:03:18.544Z,1.48
2023-01-20T05:04:19.247Z,1.48
2023-01-20T05:05:19.966Z,1.50
2023-01-20T05:06:20.932Z,1.51
2023-01-20T05:07:21.648Z,1.51
2023-01-20T05:08:22.354Z,1.51
2023-01-20T05:09:23.048Z,1.50
2023-01-20T05:10:23.751Z,1.51
2023-01-20T05:11:24.940Z,1.50
2023-01-20T05:12:25.140Z,1.48
2023-01-20T05:13:25.866Z,1.50
2023-01-20T05:14:26.576Z,1.50
2023-01-20T05:15:27.238Z,1.50
2023-01-20T05:16:28.429Z,1.50
2023-01-20T05:17:28.640Z,1.50
2023-01-20T05:18:29.340Z,1.51
2023-01-20T05:19:30.056Z,1.52
2023-01-20T05:20:30.750Z,1.52
2023-01-20T05:21:31.471Z,1.52
2023-01-20T05:22:32.171Z,1.54
2023-01-20T05:23:32.891Z,1.52
2023-01-20T05:24:33.599Z,1.54
2023-01-20T05:25:34.319Z,1.52
2023-01-20T05:26:35.443Z,1.52
2023-01-20T05:27:35.678Z,1.52
2023-01-20T05:28:36.379Z,1.52
2023-01-20T05:29:37.105Z,1.52
2023-01-20T05:30:37.895Z,1.54
2023-01-20T05:31:39.052Z,1.52
2023-01-20T05:32:39.235Z,1.52
2023-01-20T05:33:39.955Z,1.50
2023-01-20T05:34:40.648Z,1.48
2023-01-20T05:35:41.358Z,1.45
2023-01-20T05:36:42.432Z,1.44
2023-01-20T05:37:42.645Z,1.45
2023-01-20T05:38:43.352Z,1.47
2023-01-20T05:39:44.063Z,1.42
2023-01-20T05:40:44.767Z,1.44
2023-01-20T05:41:45.959Z,1.44
2023-01-20T05:42:46.152Z,1.42
2023-01-20T05:43:46.880Z,1.44
2023-01-20T05:44:47.606Z,1.45
2023-01-20T05:45:48.263Z,1.44
2023-01-20T05:46:48.983Z,1.44
2023-01-20T05:47:49.680Z,1.44
2023-01-20T05:48:50.391Z,1.44
2023-01-20T05:49:51.090Z,1.44
2023-01-20T05:50:51.796Z,1.44
2023-01-20T05:51:52.510Z,1.45
2023-01-20T05:52:53.227Z,1.45
2023-01-20T05:53:53.927Z,1.44
2023-01-20T05:54:54.632Z,1.44
2023-01-20T05:55:55.337Z,1.44
2023-01-20T05:56:56.435Z,1.44
2023-01-20T05:57:56.636Z,1.44
2023-01-20T05:58:57.392Z,1.45
2023-01-20T05:59:58.060Z,1.42
2023-01-20T06:00:58.855Z,1.44
2023-01-20T06:01:59.533Z,1.47
2023-01-20T06:03:00.306Z,1.47
2023-01-20T06:04:01.029Z,1.45
2023-01-20T06:05:01.685Z,1.45
2023-01-20T06:06:02.398Z,1.45
2023-01-20T06:07:03.104Z,1.44
2023-01-20T06:08:03.807Z,1.44
2023-01-20T06:09:04.510Z,1.42
2023-01-20T06:10:05.225Z,1.42
2023-01-20T06:11:05.931Z,1.44
2023-01-20T06:12:06.644Z,1.44
2023-01-20T06:13:07.350Z,1.42
2023-01-20T06:14:08.074Z,1.42
2023-01-20T06:15:08.798Z,1.41
2023-01-20T06:16:09.497Z,1.41
2023-01-20T06:17:10.181Z,1.41
2023-01-20T06:18:10.891Z,1.42
2023-01-20T06:19:11.593Z,1.40
2023-01-20T06:20:12.302Z,1.42
2023-01-20T06:21:13.010Z,1.42
2023-01-20T06:22:13.717Z,1.44
2023-01-20T06:23:14.427Z,1.45
2023-01-20T06:24:15.138Z,1.42
2023-01-20T06:25:16.127Z,1.42
2023-01-20T06:26:16.402Z,1.44
2023-01-20T06:27:17.143Z,1.45
2023-01-20T06:28:17.855Z,1.42
2023-01-20T06:29:18.565Z,1.41
2023-01-20T06:30:19.266Z,1.37
2023-01-20T06:31:19.995Z,1.36
2023-01-20T06:32:20.682Z,1.37
2023-01-20T06:33:21.388Z,1.41
2023-01-20T06:34:22.102Z,1.37
2023-01-20T06:35:22.802Z,1.37
2023-01-20T06:36:23.519Z,1.40
2023-01-20T06:37:24.230Z,1.40
2023-01-20T06:38:24.939Z,1.37
2023-01-20T06:39:25.642Z,1.40
2023-01-20T06:40:26.348Z,1.37
2023-01-20T06:41:27.054Z,1.36
2023-01-20T06:42:27.782Z,1.40
2023-01-20T06:43:28.487Z,1.40
2023-01-20T06:44:29.209Z,1.41
2023-01-20T06:45:29.916Z,1.41
2023-01-20T06:46:30.648Z,1.40
2023-01-20T06:47:31.324Z,1.37
2023-01-20T06:48:32.021Z,1.36
2023-01-20T06:49:32.725Z,1.36
2023-01-20T06:50:33.429Z,1.37
2023-01-20T06:51:34.137Z,1.36
2023-01-20T06:52:34.884Z,1.36
2023-01-20T06:53:35.556Z,1.37
2023-01-20T06:54:36.273Z,1.37
2023-01-20T06:55:36.967Z,1.37
2023-01-20T06:56:37.681Z,1.37
2023-01-20T06:57:38.388Z,1.40
2023-01-20T06:58:39.113Z,1.37
2023-01-20T06:59:39.831Z,1.44
2023-01-20T07:00:40.600Z,1.40
2023-01-20T07:01:41.486Z,1.40
2023-01-20T07:02:42.260Z,1.40
2023-01-20T07:03:42.902Z,1.37
2023-01-20T07:04:43.612Z,1.40
2023-01-20T07:05:44.325Z,1.40
2023-01-20T07:06:45.029Z,1.40
2023-01-20T07:07:45.934Z,1.41
2023-01-20T07:08:46.644Z,1.44
2023-01-20T07:09:47.371Z,1.44
2023-01-20T07:10:48.062Z,1.44
2023-01-20T07:11:48.764Z,1.48
2023-01-20T07:12:49.948Z,1.48
2023-01-20T07:13:50.159Z,1.48
2023-01-20T07:14:50.883Z,1.48
2023-01-20T07:15:51.587Z,1.50
2023-01-20T07:16:52.310Z,1.51
2023-01-20T07:17:53.433Z,1.51
2023-01-20T07:18:53.689Z,1.51
2023-01-20T07:19:54.355Z,1.51
2023-01-20T07:20:55.076Z,1.52
2023-01-20T07:21:55.802Z,1.51
2023-01-20T07:22:56.930Z,1.52
2023-01-20T07:23:57.141Z,1.54
2023-01-20T07:24:57.853Z,1.54
2023-01-20T07:25:58.549Z,1.58
2023-01-20T07:26:59.254Z,1.58
2023-01-20T07:27:59.984Z,1.59
2023-01-20T07:29:00.710Z,1.59
2023-01-20T07:30:01.410Z,1.60
2023-01-20T07:31:02.188Z,1.60
2023-01-20T07:32:02.896Z,1.59
2023-01-20T07:33:03.932Z,1.59
2023-01-20T07:34:04.140Z,1.55
2023-01-20T07:35:04.847Z,1.58
2023-01-20T07:36:05.560Z,1.58
2023-01-20T07:37:06.264Z,1.59
2023-01-20T07:38:07.436Z,1.60
2023-01-20T07:39:07.659Z,1.58
2023-01-20T07:40:08.370Z,1.59
2023-01-20T07:41:09.079Z,1.59
2023-01-20T07:42:09.788Z,1.60
2023-01-20T07:43:10.939Z,1.59
2023-01-20T07:44:11.190Z,1.62
2023-01-20T07:45:11.958Z,1.62
2023-01-20T07:46:12.669Z,1.59
2023-01-20T07:47:13.336Z,1.60
2023-01-20T07:48:14.438Z,1.59
2023-01-20T07:49:14.644Z,1.60
2023-01-20T07:50:15.351Z,1.62
2023-01-20T07:51:16.092Z,1.62
2023-01-20T07:52:16.762Z,1.63
2023-01-20T07:53:17.938Z,1.62
2023-01-20T07:54:18.137Z,1.65
2023-01-20T07:55:18.850Z,1.66
2023-01-20T07:56:19.567Z,1.68
2023-01-20T07:57:20.286Z,1.66
2023-01-20T07:58:20.983Z,1.66
2023-01-20T07:59:21.693Z,1.65
2023-01-20T08:00:22.466Z,1.63
2023-01-20T08:01:23.267Z,1.63
2023-01-20T08:02:23.948Z,1.65
2023-01-20T08:03:27.269Z,1.69
2023-01-20T08:04:25.607Z,1.68
2023-01-20T08:05:26.288Z,1.70
2023-01-20T08:06:26.999Z,1.72
2023-01-20T08:07:27.696Z,1.72
2023-01-20T08:08:28.432Z,1.72
2023-01-20T08:09:29.140Z,1.76
2023-01-20T08:10:29.883Z,1.77
2023-01-20T08:11:30.552Z,1.77
2023-01-20T08:12:31.268Z,1.80
2023-01-20T08:13:32.441Z,1.80
2023-01-20T08:14:32.641Z,1.77
2023-01-20T08:15:33.374Z,1.80
2023-01-20T08:16:34.207Z,1.77
2023-01-20T08:17:34.884Z,1.73
2023-01-20T08:18:35.936Z,1.69
2023-01-20T08:19:36.140Z,1.73
2023-01-20T08:20:36.849Z,1.73
2023-01-20T08:21:37.588Z,1.79
2023-01-20T08:22:38.296Z,1.81
2023-01-20T08:23:39.000Z,1.83
2023-01-20T08:24:39.708Z,1.88
2023-01-20T08:25:40.417Z,1.88
2023-01-20T08:26:41.134Z,1.91
2023-01-20T08:27:41.919Z,1.95
2023-01-20T08:28:42.619Z,1.99
2023-01-20T08:29:43.338Z,2.05
2023-01-20T08:30:44.141Z,2.07
2023-01-20T08:31:44.993Z,2.05
2023-01-20T08:32:45.648Z,1.98
2023-01-20T08:33:46.437Z,1.99
2023-01-20T08:34:47.145Z,2.06
2023-01-20T08:35:47.856Z,2.10
2023-01-20T08:36:48.562Z,2.20
2023-01-20T08:37:49.277Z,2.34
2023-01-20T08:38:50.441Z,2.38
2023-01-20T08:39:50.637Z,2.34
2023-01-20T08:40:51.367Z,2.42
2023-01-20T08:41:52.058Z,2.49
2023-01-20T08:42:52.762Z,2.56
2023-01-20T08:43:53.934Z,2.66
2023-01-20T08:44:54.150Z,2.74
2023-01-20T08:45:54.945Z,2.72
2023-01-20T08:46:55.612Z,2.59
2023-01-20T08:47:56.299Z,2.46
2023-01-20T08:48:57.440Z,2.38
2023-01-20T08:49:57.649Z,2.30
2023-01-20T08:50:58.391Z,2.25
2023-01-20T08:51:59.082Z,2.38
2023-01-20T08:52:59.786Z,2.42
2023-01-20T08:54:00.943Z,2.41
2023-01-20T08:55:01.162Z,2.41
2023-01-20T08:56:01.871Z,2.35
2023-01-20T08:57:02.592Z,2.27
2023-01-20T08:58:03.298Z,2.28
2023-01-20T08:59:04.029Z,2.23
2023-01-20T09:00:04.731Z,2.18
2023-01-20T09:01:05.475Z,2.21
2023-01-20T09:02:06.170Z,2.25
2023-01-20T09:03:06.847Z,2.24
2023-01-20T09:04:07.900Z,2.21
2023-01-20T09:05:08.074Z,2.28
2023-01-20T09:06:08.780Z,2.43
2023-01-20T09:07:09.527Z,2.38
2023-01-20T09:08:10.195Z,2.28
2023-01-20T09:09:10.912Z,2.27
2023-01-20T09:10:11.617Z,2.35
2023-01-20T09:11:12.336Z,2.41
2023-01-20T09:12:13.024Z,2.39
2023-01-20T09:13:13.739Z,2.48
2023-01-20T09:14:14.446Z,2.59
2023-01-20T09:15:15.397Z,2.66
2023-01-20T09:16:15.993Z,2.77
2023-01-20T09:17:16.653Z,2.75
2023-01-20T09:18:17.352Z,2.77
2023-01-20T09:19:18.446Z,2.85
2023-01-20T09:20:18.657Z,2.78
2023-01-20T09:21:19.358Z,2.72
2023-01-20T09:22:20.070Z,2.71
2023-01-20T09:23:20.806Z,2.74
2023-01-20T09:24:21.940Z,2.60
2023-01-20T09:25:22.148Z,2.53
2023-01-20T09:26:35.351Z,2.53
2023-01-20T09:27:24.455Z,2.57
2023-01-20T09:28:24.164Z,2.57
2023-01-20T09:29:24.890Z,2.45
2023-01-20T09:30:25.613Z,2.56
2023-01-20T09:31:26.618Z,2.64
2023-01-20T09:32:27.290Z,2.60
2023-01-20T09:33:27.963Z,2.64
2023-01-20T09:34:28.937Z,2.53
2023-01-20T09:35:29.648Z,2.45
2023-01-20T09:36:30.379Z,2.53
2023-01-20T09:37:31.073Z,2.59
2023-01-20T09:38:31.773Z,2.63
2023-01-20T09:39:32.950Z,2.60
2023-01-20T09:40:33.171Z,2.66
2023-01-20T09:41:33.917Z,2.74
2023-01-20T09:42:34.622Z,2.85
2023-01-20T09:43:35.331Z,2.87
2023-01-20T09:44:36.049Z,3.02
2023-01-20T09:45:36.763Z,2.93
2023-01-20T09:46:37.595Z,2.85
2023-01-20T09:47:38.299Z,2.81
2023-01-20T09:48:39.014Z,2.85
2023-01-20T09:49:39.958Z,2.85
2023-01-20T09:50:40.657Z,2.87
2023-01-20T09:51:41.374Z,2.92
2023-01-20T09:52:42.061Z,2.96
2023-01-20T09:53:42.901Z,2.93
2023-01-20T09:54:43.939Z,2.93
2023-01-20T09:55:44.152Z,2.89
2023-01-20T09:56:44.869Z,2.87
2023-01-20T09:57:45.577Z,2.84
2023-01-20T09:58:46.275Z,2.87
2023-01-20T09:59:46.993Z,2.87
2023-01-20T10:00:47.705Z,2.78
2023-01-20T10:01:48.512Z,2.74
2023-01-20T10:02:49.202Z,2.74
2023-01-20T10:03:49.840Z,2.79
2023-01-20T10:04:50.652Z,2.81
2023-01-20T10:05:51.294Z,2.81
2023-01-20T10:06:52.017Z,2.85
2023-01-20T10:07:52.709Z,2.87
2023-01-20T10:09:04.949Z,2.78
2023-01-20T10:09:55.027Z,2.72
2023-01-20T10:10:54.750Z,2.72
2023-01-20T10:11:55.469Z,2.74
2023-01-20T10:12:56.162Z,2.81
2023-01-20T10:13:56.874Z,2.82
2023-01-20T10:14:57.939Z,2.81
2023-01-20T10:15:58.178Z,2.84
2023-01-20T10:16:58.885Z,2.78
2023-01-20T10:17:59.644Z,2.72
2023-01-20T10:19:00.309Z,2.71
2023-01-20T10:20:01.266Z,2.63
2023-01-20T10:21:01.949Z,2.59
2023-01-20T10:22:02.669Z,2.61
2023-01-20T10:23:03.360Z,2.63
2023-01-20T10:24:04.059Z,2.75
2023-01-20T10:25:04.777Z,2.81
2023-01-20T10:26:05.483Z,2.93
2023-01-20T10:27:06.188Z,2.95
2023-01-20T10:28:06.895Z,2.93
2023-01-20T10:29:07.611Z,2.93
2023-01-20T10:30:08.341Z,2.87
2023-01-20T10:31:09.147Z,2.90
2023-01-20T10:32:09.844Z,2.93
2023-01-20T10:33:10.574Z,2.96
2023-01-20T10:34:11.238Z,3.00
2023-01-20T10:35:12.465Z,3.08
2023-01-20T10:36:12.652Z,3.08
2023-01-20T10:37:13.353Z,2.97
2023-01-20T10:38:14.152Z,2.97
2023-01-20T10:39:14.874Z,3.06
2023-01-20T10:40:15.856Z,3.08
2023-01-20T10:41:18.709Z,3.13
2023-01-20T10:42:17.215Z,3.17
2023-01-20T10:43:17.926Z,3.24
2023-01-20T10:44:18.629Z,3.69
2023-01-20T10:45:19.340Z,3.68
2023-01-20T10:46:20.098Z,3.58
2023-01-20T10:47:20.781Z,3.51
2023-01-20T10:48:21.487Z,3.48
2023-01-20T10:49:22.178Z,3.57
2023-01-20T10:50:23.087Z,3.98
2023-01-20T10:51:23.831Z,4.20
2023-01-20T10:52:24.557Z,4.00
2023-01-20T10:53:25.245Z,3.94
2023-01-20T10:54:25.975Z,3.83
2023-01-20T10:55:26.943Z,4.05
2023-01-20T10:56:27.650Z,4.12
2023-01-20T10:57:28.355Z,4.08
2023-01-20T10:58:29.080Z,4.06
2023-01-20T10:59:29.783Z,4.11
2023-01-20T11:00:30.949Z,4.54
2023-01-20T11:01:31.172Z,4.58
2023-01-20T11:02:32.023Z,4.58
2023-01-20T11:03:32.740Z,4.94
2023-01-20T11:04:33.428Z,4.96
2023-01-20T11:05:34.119Z,4.80
2023-01-20T11:06:34.860Z,4.66
2023-01-20T11:07:36.445Z,4.59
2023-01-20T11:08:36.211Z,4.59
2023-01-20T11:09:36.904Z,4.30
2023-01-20T11:10:37.939Z,4.15
2023-01-20T11:11:38.152Z,4.22
2023-01-20T11:12:38.855Z,4.16
2023-01-20T11:13:39.562Z,4.15
2023-01-20T11:14:40.267Z,4.08
2023-01-20T11:15:40.995Z,4.08
2023-01-20T11:16:41.714Z,4.09
2023-01-20T11:17:42.428Z,4.04
2023-01-20T11:18:43.127Z,4.02
2023-01-20T11:19:43.796Z,4.00
2023-01-20T11:20:44.514Z,3.90
2023-01-20T11:21:45.288Z,3.79
2023-01-20T11:22:46.137Z,3.86
2023-01-20T11:23:47.019Z,3.97
2023-01-20T11:24:47.734Z,3.96
2023-01-20T11:25:48.440Z,3.93
2023-01-20T11:26:49.149Z,3.86
2023-01-20T11:27:49.887Z,3.86
2023-01-20T11:28:50.588Z,3.76
2023-01-20T11:29:51.281Z,3.80
2023-01-20T11:30:52.530Z,3.76
2023-01-20T11:31:52.849Z,3.84
2023-01-20T11:32:53.520Z,3.75
2023-01-20T11:33:54.225Z,3.75
2023-01-20T11:34:54.865Z,3.62
2023-01-20T11:35:55.672Z,3.65
2023-01-20T11:36:56.375Z,3.78
2023-01-20T11:37:57.116Z,3.87
2023-01-20T11:38:57.810Z,3.88
2023-01-20T11:39:58.529Z,3.75
2023-01-20T11:40:59.245Z,3.69
2023-01-20T11:41:59.954Z,3.73
2023-01-20T11:43:00.656Z,3.78
2023-01-20T11:44:01.366Z,3.79
2023-01-20T11:45:21.560Z,3.75
2023-01-20T11:46:03.683Z,3.73
2023-01-20T11:47:03.391Z,3.78
2023-01-20T11:48:04.223Z,3.80
2023-01-20T11:49:04.871Z,3.76
2023-01-20T11:50:05.558Z,3.61
2023-01-20T11:51:06.285Z,3.68
2023-01-20T11:52:06.989Z,3.76
2023-01-20T11:53:07.705Z,3.83
2023-01-20T11:54:08.418Z,3.91
2023-01-20T11:55:09.176Z,3.88
2023-01-20T11:56:09.979Z,3.98
2023-01-20T11:57:10.678Z,4.06
2023-01-20T11:58:11.380Z,4.23
2023-01-20T11:59:12.109Z,4.22
2023-01-20T12:00:13.202Z,4.45
2023-01-20T12:01:13.499Z,4.45
2023-01-20T12:02:14.233Z,4.40
2023-01-20T12:03:14.922Z,4.36
2023-01-20T12:04:15.707Z,4.45
2023-01-20T12:05:16.410Z,4.47
2023-01-20T12:06:17.112Z,4.47
2023-01-20T12:07:17.844Z,4.42
2023-01-20T12:08:18.542Z,4.36
2023-01-20T12:09:19.267Z,4.23
2023-01-20T12:10:19.961Z,4.11
2023-01-20T12:11:20.672Z,4.05
2023-01-20T12:12:21.386Z,4.09
2023-01-20T12:13:22.086Z,4.14
2023-01-20T12:14:22.805Z,4.08
2023-01-20T12:15:23.501Z,4.05
2023-01-20T12:16:24.290Z,3.97
2023-01-20T12:17:24.953Z,4.06
2023-01-20T12:18:25.676Z,4.02
2023-01-20T12:19:26.396Z,4.06
2023-01-20T12:20:27.075Z,3.97
2023-01-20T12:21:27.819Z,4.05
2023-01-20T12:22:28.494Z,4.11
2023-01-20T12:23:29.197Z,4.23
2023-01-20T12:24:42.420Z,4.33
2023-01-20T12:25:31.512Z,4.29
2023-01-20T12:26:31.228Z,4.34
2023-01-20T12:27:31.942Z,4.30
2023-01-20T12:28:32.644Z,4.30
2023-01-20T12:29:33.372Z,4.24
2023-01-20T12:30:34.116Z,4.09
2023-01-20T12:31:34.986Z,4.05
2023-01-20T12:32:35.824Z,4.11
2023-01-20T12:33:36.573Z,4.15
2023-01-20T12:34:37.226Z,4.27
2023-01-20T12:35:37.882Z,4.27
2023-01-20T12:36:38.965Z,4.26
2023-01-20T12:37:39.164Z,4.16
2023-01-20T12:38:39.870Z,4.08
2023-01-20T12:39:40.576Z,4.12
2023-01-20T12:40:41.292Z,4.12
2023-01-20T12:41:41.998Z,4.12
2023-01-20T12:42:42.709Z,4.12
2023-01-20T12:43:43.413Z,4.06
2023-01-20T12:44:44.126Z,4.00
2023-01-20T12:45:44.867Z,3.88
2023-01-20T12:46:45.558Z,3.83
2023-01-20T12:47:46.258Z,3.78
2023-01-20T12:48:46.995Z,3.73
2023-01-20T12:49:47.697Z,3.72
2023-01-20T12:50:48.358Z,3.70
2023-01-20T12:51:49.076Z,3.66
2023-01-20T12:52:49.782Z,3.68
2023-01-20T12:53:50.489Z,3.69
2023-01-20T12:54:51.196Z,3.66
2023-01-20T12:55:52.862Z,3.66
2023-01-20T12:56:52.561Z,3.72
2023-01-20T12:57:53.262Z,3.79
2023-01-20T12:58:53.983Z,3.91
2023-01-20T12:59:54.671Z,3.93
2023-01-20T13:00:55.410Z,3.94
2023-01-20T13:01:56.104Z,4.04
2023-01-20T13:02:56.896Z,4.06
2023-01-20T13:03:57.606Z,4.00
2023-01-20T13:04:58.336Z,3.91
2023-01-20T13:05:58.968Z,3.84
2023-01-20T13:06:59.700Z,3.79
2023-01-20T13:08:00.429Z,3.84
2023-01-20T13:09:01.157Z,3.90
2023-01-20T13:10:01.838Z,4.12
2023-01-20T13:11:02.590Z,4.14
2023-01-20T13:12:03.443Z,4.11
2023-01-20T13:13:04.154Z,4.02
2023-01-20T13:14:04.855Z,3.93
2023-01-20T13:15:05.605Z,3.96
2023-01-20T13:16:06.305Z,3.98
2023-01-20T13:17:07.131Z,3.97
2023-01-20T13:18:07.854Z,3.96
2023-01-20T13:19:08.658Z,3.94
2023-01-20T13:20:09.351Z,3.93
2023-01-20T13:21:10.050Z,3.93
2023-01-20T13:22:10.772Z,3.90
2023-01-20T13:23:11.509Z,3.87
2023-01-20T13:24:12.240Z,3.84
2023-01-20T13:25:13.509Z,3.79
2023-01-20T13:26:13.860Z,3.78
2023-01-20T13:27:14.956Z,3.76
2023-01-20T13:28:15.241Z,3.73